WEATHER/FLIGHT PLANNING

Hattiesburg Radar

 

 

 

 

Weather Links

Flight Planning Links

 

METAR

2020/07/09 18:53 KHBG 091853Z AUTO 24007KT 220V290 10SM FEW035 32/23 A2996 RMK AO2 SLP142 T03170233

TAF

2020/07/09 18:27 TAF KHBG 091725Z 0918/1018 28006KT P6SM SCT050 FM101200 28003KT P6SM OVC015 FM101400 29009KT P6SM BKN250